createdAt,value
2017-07-16T00:01:27.479Z,3.13
2017-07-16T00:03:54.924Z,2.83
2017-07-16T00:06:23.140Z,2.97
2017-07-16T00:08:50.600Z,3.33
2017-07-16T00:11:18.049Z,2.97
2017-07-16T00:13:45.491Z,3.00
2017-07-16T00:16:12.939Z,3.63
2017-07-16T00:18:40.383Z,2.80
2017-07-16T00:21:08.607Z,2.80
2017-07-16T00:23:36.072Z,2.70
2017-07-16T00:26:03.531Z,2.83
2017-07-16T00:28:30.979Z,3.37
2017-07-16T00:30:58.474Z,3.07
2017-07-16T00:33:26.676Z,3.20
2017-07-16T00:35:54.124Z,3.10
2017-07-16T00:38:21.563Z,2.63
2017-07-16T00:40:49.792Z,2.63
2017-07-16T00:43:17.246Z,2.90
2017-07-16T00:45:44.693Z,2.90
2017-07-16T00:48:12.155Z,2.60
2017-07-16T00:50:39.604Z,3.13
2017-07-16T00:53:07.063Z,3.10
2017-07-16T00:55:34.504Z,2.90
2017-07-16T00:58:01.950Z,3.00
2017-07-16T01:00:29.395Z,3.13
2017-07-16T01:02:57.619Z,2.83
2017-07-16T01:05:25.065Z,3.07
2017-07-16T01:07:52.517Z,2.80
2017-07-16T01:10:19.971Z,3.20
2017-07-16T01:12:47.415Z,3.10
2017-07-16T01:15:14.873Z,2.80
2017-07-16T01:17:42.311Z,3.03
2017-07-16T01:20:09.772Z,3.03
2017-07-16T01:22:37.975Z,2.80
2017-07-16T01:25:05.428Z,3.47
2017-07-16T01:27:32.876Z,3.53
2017-07-16T01:30:00.343Z,3.50
2017-07-16T01:32:27.797Z,3.13
2017-07-16T01:34:55.245Z,3.20
2017-07-16T01:37:22.697Z,3.30
2017-07-16T01:39:50.143Z,3.20
2017-07-16T01:42:17.588Z,3.30
2017-07-16T01:44:45.036Z,3.67
2017-07-16T01:47:13.268Z,3.80
2017-07-16T01:49:40.708Z,3.77
2017-07-16T01:52:08.164Z,3.53
2017-07-16T01:54:35.618Z,4.27
2017-07-16T01:57:03.100Z,3.70
2017-07-16T01:59:30.558Z,3.87
2017-07-16T02:01:58.011Z,3.57
2017-07-16T02:04:25.455Z,3.20
2017-07-16T02:06:52.899Z,3.80
2017-07-16T02:09:20.356Z,3.47
2017-07-16T02:11:47.816Z,3.40
2017-07-16T02:14:15.268Z,4.23
2017-07-16T02:16:42.712Z,3.80
2017-07-16T02:19:10.185Z,3.83
2017-07-16T02:21:37.639Z,4.40
2017-07-16T02:24:05.079Z,3.70
2017-07-16T02:26:32.524Z,3.83
2017-07-16T02:28:59.963Z,3.70
2017-07-16T02:31:28.179Z,3.67
2017-07-16T02:33:55.622Z,3.43
2017-07-16T02:36:23.068Z,3.80
2017-07-16T02:38:52.088Z,3.60
2017-07-16T02:41:19.545Z,3.50
2017-07-16T02:43:46.993Z,4.17
2017-07-16T02:46:14.446Z,4.00
2017-07-16T02:48:41.904Z,3.67
2017-07-16T02:51:09.339Z,3.40
2017-07-16T02:53:36.787Z,3.27
2017-07-16T02:56:04.231Z,3.77
2017-07-16T02:58:32.451Z,3.63
2017-07-16T03:00:59.891Z,3.60
2017-07-16T03:03:27.340Z,4.10
2017-07-16T03:05:54.780Z,4.00
2017-07-16T03:08:23.016Z,4.00
2017-07-16T03:10:50.460Z,3.77
2017-07-16T03:13:17.904Z,3.77
2017-07-16T03:15:45.357Z,4.60
2017-07-16T03:18:12.800Z,3.70
2017-07-16T03:20:40.247Z,3.87
2017-07-16T03:23:07.691Z,3.70
2017-07-16T03:25:37.846Z,4.37
2017-07-16T03:28:05.287Z,3.53
2017-07-16T03:30:32.736Z,3.60
2017-07-16T03:33:00.179Z,3.87
2017-07-16T03:35:28.415Z,3.80
2017-07-16T03:37:55.868Z,3.90
2017-07-16T03:40:23.324Z,4.07
2017-07-16T03:42:50.786Z,3.70
2017-07-16T03:45:18.228Z,3.50
2017-07-16T03:47:45.680Z,4.30
2017-07-16T03:50:13.132Z,3.80
2017-07-16T03:52:40.586Z,3.47
2017-07-16T03:55:08.028Z,3.73
2017-07-16T03:57:35.472Z,4.13
2017-07-16T04:00:02.912Z,3.70
2017-07-16T04:02:31.125Z,3.77
2017-07-16T04:04:58.579Z,4.00
2017-07-16T04:07:26.029Z,3.40
2017-07-16T04:09:53.480Z,3.87
2017-07-16T04:12:20.925Z,3.70
2017-07-16T04:14:48.367Z,4.07
2017-07-16T04:17:16.580Z,4.07
2017-07-16T04:19:44.039Z,3.87
2017-07-16T04:22:11.490Z,4.30
2017-07-16T04:24:38.928Z,4.17
2017-07-16T04:27:06.373Z,3.73
2017-07-16T04:29:33.821Z,4.17
2017-07-16T04:32:02.041Z,3.73
2017-07-16T04:34:29.488Z,4.00
2017-07-16T04:36:56.944Z,3.30
2017-07-16T04:39:24.394Z,3.67
2017-07-16T04:41:51.852Z,3.30
2017-07-16T04:44:19.306Z,3.03
2017-07-16T04:46:46.769Z,3.30
2017-07-16T04:49:14.222Z,4.17
2017-07-16T04:51:41.675Z,3.30
2017-07-16T04:54:09.112Z,4.03
2017-07-16T04:56:36.556Z,3.40
2017-07-16T04:59:04.772Z,3.47
2017-07-16T05:01:32.225Z,3.77
2017-07-16T05:03:59.683Z,3.60
2017-07-16T05:06:27.123Z,3.90
2017-07-16T05:08:54.577Z,3.80
2017-07-16T05:11:22.015Z,3.80
2017-07-16T05:13:49.464Z,3.90
2017-07-16T05:16:17.680Z,4.30
2017-07-16T05:18:45.171Z,3.80
2017-07-16T05:21:12.615Z,3.43
2017-07-16T05:23:40.066Z,3.97
2017-07-16T05:26:07.531Z,3.70
2017-07-16T05:28:35.013Z,3.87
2017-07-16T05:31:03.229Z,3.83
2017-07-16T05:33:30.667Z,3.70
2017-07-16T05:35:58.110Z,4.13
2017-07-16T05:38:26.320Z,3.77
2017-07-16T05:40:53.777Z,3.87
2017-07-16T05:43:21.221Z,3.57
2017-07-16T05:45:48.674Z,3.70
2017-07-16T05:48:16.111Z,3.53
2017-07-16T05:50:44.323Z,3.20
2017-07-16T05:53:11.775Z,2.70
2017-07-16T05:55:39.236Z,3.10
2017-07-16T05:58:06.687Z,2.77
2017-07-16T06:00:34.146Z,2.70
2017-07-16T06:03:01.599Z,3.00
2017-07-16T06:05:29.064Z,2.50
2017-07-16T06:07:56.513Z,2.83
2017-07-16T06:10:23.981Z,2.50
2017-07-16T06:12:51.426Z,2.70
2017-07-16T06:15:18.887Z,2.50
2017-07-16T06:17:46.339Z,2.40
2017-07-16T06:20:13.792Z,2.70
2017-07-16T06:22:41.252Z,2.40
2017-07-16T06:25:08.757Z,2.43
2017-07-16T06:27:36.203Z,2.20
2017-07-16T06:30:03.655Z,2.30
2017-07-16T06:32:31.107Z,2.70
2017-07-16T06:34:58.551Z,2.70
2017-07-16T06:37:26.018Z,2.10
2017-07-16T06:39:53.448Z,2.60
2017-07-16T06:42:20.899Z,2.43
2017-07-16T06:44:48.356Z,2.17
2017-07-16T06:47:15.799Z,2.47
2017-07-16T06:49:43.255Z,2.40
2017-07-16T06:52:10.697Z,2.93
2017-07-16T06:54:38.148Z,2.50
2017-07-16T06:57:06.358Z,2.23
2017-07-16T06:59:33.812Z,2.30
2017-07-16T07:02:01.248Z,2.53
2017-07-16T07:04:28.697Z,2.50
2017-07-16T07:06:56.130Z,1.70
2017-07-16T07:09:24.366Z,2.30
2017-07-16T07:11:51.813Z,2.10
2017-07-16T07:14:19.251Z,1.70
2017-07-16T07:16:46.707Z,1.83
2017-07-16T07:19:14.166Z,1.70
2017-07-16T07:21:41.611Z,2.00
2017-07-16T07:24:09.056Z,1.90
2017-07-16T07:26:36.502Z,1.73
2017-07-16T07:29:03.960Z,2.17
2017-07-16T07:31:31.552Z,1.80
2017-07-16T07:33:59.092Z,1.90
2017-07-16T07:36:26.539Z,2.33
2017-07-16T07:38:53.983Z,2.10
2017-07-16T07:41:21.431Z,1.87
2017-07-16T07:43:48.871Z,2.00
2017-07-16T07:46:16.336Z,2.00
2017-07-16T07:48:43.779Z,1.60
2017-07-16T07:51:11.228Z,1.80
2017-07-16T07:53:38.696Z,1.70
2017-07-16T07:56:06.131Z,1.90
2017-07-16T07:58:33.574Z,2.10
2017-07-16T08:01:01.801Z,1.80
2017-07-16T08:03:29.257Z,2.07
2017-07-16T08:05:56.703Z,2.20
2017-07-16T08:08:24.152Z,1.60
2017-07-16T08:10:51.592Z,1.87
2017-07-16T08:13:19.050Z,1.73
2017-07-16T08:15:46.482Z,2.00
2017-07-16T08:18:14.695Z,2.00
2017-07-16T08:20:42.139Z,1.63
2017-07-16T08:23:09.592Z,2.10
2017-07-16T08:25:37.026Z,1.90
2017-07-16T08:28:05.259Z,1.90
2017-07-16T08:30:32.715Z,2.20
2017-07-16T08:33:00.171Z,1.80
2017-07-16T08:35:27.627Z,1.90
2017-07-16T08:37:55.088Z,2.00
2017-07-16T08:40:22.532Z,1.80
2017-07-16T08:42:49.979Z,1.70
2017-07-16T08:45:17.432Z,1.60
2017-07-16T08:47:45.126Z,1.67
2017-07-16T08:50:12.589Z,1.77
2017-07-16T08:52:40.027Z,1.43
2017-07-16T08:55:07.480Z,1.53
2017-07-16T08:57:34.926Z,0.93
2017-07-16T09:00:02.383Z,1.47
2017-07-16T09:02:29.828Z,1.20
2017-07-16T09:04:57.268Z,1.00
2017-07-16T09:07:24.716Z,1.43
2017-07-16T09:09:52.157Z,1.23
2017-07-16T09:12:20.381Z,1.40
2017-07-16T09:14:47.851Z,1.47
2017-07-16T09:17:15.303Z,1.70
2017-07-16T09:19:42.747Z,1.43
2017-07-16T09:22:10.194Z,1.37
2017-07-16T09:24:37.642Z,1.47
2017-07-16T09:27:05.079Z,1.53
2017-07-16T09:29:32.519Z,0.87
2017-07-16T09:32:00.735Z,1.30
2017-07-16T09:34:28.175Z,1.23
2017-07-16T09:36:55.624Z,1.27
2017-07-16T09:39:23.061Z,1.30
2017-07-16T09:41:50.539Z,1.17
2017-07-16T09:44:17.963Z,1.70
2017-07-16T09:46:45.415Z,1.50
2017-07-16T09:49:12.872Z,1.10
2017-07-16T09:51:40.312Z,1.37
2017-07-16T09:54:07.757Z,1.63
2017-07-16T09:56:35.195Z,1.60
2017-07-16T09:59:03.435Z,1.50
2017-07-16T10:01:30.888Z,1.57
2017-07-16T10:03:58.336Z,1.60
2017-07-16T10:06:25.785Z,1.30
2017-07-16T10:08:53.235Z,1.30
2017-07-16T10:11:20.681Z,1.33
2017-07-16T10:13:48.147Z,1.30
2017-07-16T10:16:15.592Z,1.60
2017-07-16T10:18:43.031Z,1.37
2017-07-16T10:21:10.483Z,1.70
2017-07-16T10:23:38.691Z,1.57
2017-07-16T10:26:06.148Z,1.50
2017-07-16T10:28:33.601Z,1.33
2017-07-16T10:31:01.048Z,2.30
2017-07-16T10:33:28.487Z,2.90
2017-07-16T10:35:55.934Z,2.07
2017-07-16T10:38:24.144Z,1.50
2017-07-16T10:40:51.603Z,1.30
2017-07-16T10:43:19.043Z,1.53
2017-07-16T10:45:46.496Z,1.20
2017-07-16T10:48:13.936Z,1.37
2017-07-16T10:50:42.172Z,1.70
2017-07-16T10:53:09.612Z,1.60
2017-07-16T10:55:37.054Z,1.40
2017-07-16T10:58:04.511Z,1.60
2017-07-16T11:00:31.957Z,1.60
2017-07-16T11:02:59.428Z,1.60
2017-07-16T11:05:26.883Z,1.73
2017-07-16T11:07:54.340Z,1.57
2017-07-16T11:10:21.795Z,1.27
2017-07-16T11:12:49.253Z,1.37
2017-07-16T11:15:16.709Z,1.43
2017-07-16T11:17:44.161Z,1.30
2017-07-16T11:20:11.612Z,1.37
2017-07-16T11:22:39.075Z,1.27
2017-07-16T11:25:06.550Z,1.30
2017-07-16T11:27:34.807Z,1.50
2017-07-16T11:30:02.263Z,1.30
2017-07-16T11:32:29.718Z,1.30
2017-07-16T11:34:57.175Z,1.23
2017-07-16T11:37:24.632Z,1.30
2017-07-16T11:39:52.083Z,1.20
2017-07-16T11:42:19.520Z,1.50
2017-07-16T11:44:46.968Z,1.20
2017-07-16T11:47:14.419Z,1.33
2017-07-16T11:49:42.631Z,1.13
2017-07-16T11:52:10.067Z,1.30
2017-07-16T11:54:37.519Z,1.70
2017-07-16T11:57:04.961Z,1.53
2017-07-16T11:59:32.429Z,1.37
2017-07-16T12:01:59.872Z,1.10
2017-07-16T12:04:28.083Z,1.13
2017-07-16T12:06:55.539Z,1.53
2017-07-16T12:09:22.989Z,1.43
2017-07-16T12:11:50.439Z,1.50
2017-07-16T12:14:17.881Z,1.40
2017-07-16T12:16:45.328Z,1.60
2017-07-16T12:19:13.537Z,1.00
2017-07-16T12:21:40.992Z,1.57
2017-07-16T12:24:08.435Z,1.33
2017-07-16T12:26:35.908Z,1.50
2017-07-16T12:29:03.360Z,1.70
2017-07-16T12:31:30.813Z,1.40
2017-07-16T12:33:58.257Z,1.33
2017-07-16T12:36:25.695Z,1.50
2017-07-16T12:38:53.912Z,1.60
2017-07-16T12:41:21.347Z,1.33
2017-07-16T12:43:48.793Z,1.00
2017-07-16T12:46:16.230Z,1.30
2017-07-16T12:48:44.448Z,1.43
2017-07-16T12:51:11.891Z,1.40
2017-07-16T12:53:39.340Z,1.40
2017-07-16T12:56:06.779Z,1.60
2017-07-16T12:58:35.002Z,1.27
2017-07-16T13:01:02.448Z,1.30
2017-07-16T13:03:29.900Z,1.47
2017-07-16T13:05:57.364Z,1.80
2017-07-16T13:08:24.800Z,1.67
2017-07-16T13:10:52.249Z,1.57
2017-07-16T13:13:19.695Z,1.30
2017-07-16T13:15:47.147Z,1.60
2017-07-16T13:18:15.360Z,2.50
2017-07-16T13:20:42.815Z,1.57
2017-07-16T13:23:10.267Z,3.50
2017-07-16T13:25:37.726Z,1.80
2017-07-16T13:28:05.180Z,1.50
2017-07-16T13:30:32.639Z,1.50
2017-07-16T13:33:00.080Z,1.40
2017-07-16T13:35:27.519Z,2.07
2017-07-16T13:37:54.974Z,1.77
2017-07-16T13:40:23.179Z,1.70
2017-07-16T13:42:50.633Z,1.57
2017-07-16T13:45:18.088Z,1.40
2017-07-16T13:47:46.219Z,1.93
2017-07-16T13:50:14.437Z,1.50
2017-07-16T13:52:41.904Z,1.33
2017-07-16T13:55:09.348Z,1.80
2017-07-16T13:57:36.792Z,1.60
2017-07-16T14:00:04.243Z,1.70
2017-07-16T14:02:31.685Z,1.80
2017-07-16T14:04:59.896Z,1.80
2017-07-16T14:07:27.349Z,1.90
2017-07-16T14:09:54.804Z,2.13
2017-07-16T14:12:22.248Z,1.90
2017-07-16T14:14:49.711Z,2.20
2017-07-16T14:17:17.152Z,1.60
2017-07-16T14:19:44.656Z,1.40
2017-07-16T14:22:12.100Z,1.80
2017-07-16T14:24:39.556Z,1.60
2017-07-16T14:27:06.999Z,1.60
2017-07-16T14:29:34.443Z,1.77
2017-07-16T14:32:01.890Z,1.60
2017-07-16T14:34:29.337Z,1.60
2017-07-16T14:36:56.822Z,1.50
2017-07-16T14:39:24.995Z,1.80
2017-07-16T14:41:52.452Z,1.50
2017-07-16T14:44:19.896Z,1.77
2017-07-16T14:46:47.344Z,1.70
2017-07-16T14:49:14.779Z,1.67
2017-07-16T14:51:42.991Z,1.57
2017-07-16T14:54:10.435Z,2.00
2017-07-16T14:56:37.887Z,1.70
2017-07-16T14:59:05.322Z,1.50
2017-07-16T15:01:32.871Z,1.73
2017-07-16T15:04:01.327Z,1.60
2017-07-16T15:06:28.775Z,1.70
2017-07-16T15:08:56.225Z,1.60
2017-07-16T15:11:23.668Z,1.50
2017-07-16T15:13:51.124Z,1.80
2017-07-16T15:16:18.613Z,1.67
2017-07-16T15:18:46.036Z,1.77
2017-07-16T15:21:13.487Z,1.50
2017-07-16T15:23:40.923Z,1.40
2017-07-16T15:26:08.378Z,1.80
2017-07-16T15:28:35.819Z,1.30
2017-07-16T15:31:04.037Z,1.70
2017-07-16T15:33:31.491Z,1.77
2017-07-16T15:35:58.947Z,2.00
2017-07-16T15:38:26.391Z,1.60
2017-07-16T15:40:53.858Z,1.93
2017-07-16T15:43:21.293Z,1.60
2017-07-16T15:45:48.728Z,1.70
2017-07-16T15:48:16.952Z,1.50
2017-07-16T15:50:44.400Z,1.57
2017-07-16T15:53:11.855Z,1.50
2017-07-16T15:55:39.302Z,1.40
2017-07-16T15:58:06.749Z,2.00
2017-07-16T16:00:34.191Z,2.67
2017-07-16T16:03:02.398Z,1.53
2017-07-16T16:05:29.843Z,1.70
2017-07-16T16:07:57.334Z,1.63
2017-07-16T16:10:24.754Z,1.60
2017-07-16T16:12:52.195Z,1.90
2017-07-16T16:15:19.640Z,1.80
2017-07-16T16:17:47.083Z,1.30
2017-07-16T16:20:15.307Z,1.37
2017-07-16T16:22:42.751Z,2.10
2017-07-16T16:25:10.198Z,2.53
2017-07-16T16:27:37.641Z,2.10
2017-07-16T16:30:05.856Z,1.37
2017-07-16T16:32:33.294Z,1.47
2017-07-16T16:35:00.747Z,1.73
2017-07-16T16:37:28.193Z,1.50
2017-07-16T16:39:56.420Z,1.50
2017-07-16T16:42:23.876Z,1.47
2017-07-16T16:44:51.319Z,1.57
2017-07-16T16:47:18.767Z,2.10
2017-07-16T16:49:46.208Z,1.87
2017-07-16T16:52:13.653Z,1.43
2017-07-16T16:54:41.101Z,1.67
2017-07-16T16:57:09.319Z,2.10
2017-07-16T16:59:36.762Z,1.90
2017-07-16T17:02:04.220Z,1.40
2017-07-16T17:04:31.670Z,1.40
2017-07-16T17:06:59.128Z,1.50
2017-07-16T17:09:26.563Z,1.70
2017-07-16T17:11:54.013Z,1.57
2017-07-16T17:14:22.220Z,1.50
2017-07-16T17:16:49.679Z,1.60
2017-07-16T17:19:17.116Z,1.70
2017-07-16T17:21:44.555Z,1.30
2017-07-16T17:24:12.034Z,1.30
2017-07-16T17:26:40.259Z,1.50
2017-07-16T17:29:07.711Z,1.70
2017-07-16T17:31:35.164Z,1.47
2017-07-16T17:34:02.610Z,1.60
2017-07-16T17:36:30.063Z,1.60
2017-07-16T17:38:57.511Z,1.60
2017-07-16T17:41:24.956Z,1.60
2017-07-16T17:43:52.412Z,1.30
2017-07-16T17:46:19.866Z,1.80
2017-07-16T17:48:47.317Z,1.43
2017-07-16T17:51:14.756Z,1.87
2017-07-16T17:53:42.192Z,1.57
2017-07-16T17:56:09.639Z,1.70
2017-07-16T17:58:37.084Z,1.57
2017-07-16T18:01:04.535Z,2.00
2017-07-16T18:03:31.983Z,1.83
2017-07-16T18:05:59.436Z,1.80
2017-07-16T18:08:26.883Z,2.10
2017-07-16T18:10:54.334Z,1.50
2017-07-16T18:13:21.782Z,1.80
2017-07-16T18:15:49.223Z,1.70
2017-07-16T18:18:16.699Z,1.30
2017-07-16T18:20:44.151Z,1.57
2017-07-16T18:23:11.607Z,1.70
2017-07-16T18:25:39.052Z,1.67
2017-07-16T18:28:06.496Z,1.60
2017-07-16T18:30:33.931Z,1.53
2017-07-16T18:33:01.376Z,1.83
2017-07-16T18:35:28.815Z,2.00
2017-07-16T18:37:56.273Z,1.50
2017-07-16T18:40:23.716Z,1.67
2017-07-16T18:42:51.160Z,1.60
2017-07-16T18:45:18.613Z,1.60
2017-07-16T18:47:46.047Z,1.70
2017-07-16T18:50:13.491Z,1.80
2017-07-16T18:52:41.699Z,2.30
2017-07-16T18:55:09.151Z,1.60
2017-07-16T18:57:36.594Z,1.63
2017-07-16T19:00:04.041Z,1.87
2017-07-16T19:02:31.520Z,1.33
2017-07-16T19:04:58.928Z,2.10
2017-07-16T19:07:27.150Z,1.67
2017-07-16T19:09:54.607Z,1.47
2017-07-16T19:12:22.052Z,1.63
2017-07-16T19:14:49.496Z,2.00
2017-07-16T19:17:16.941Z,1.83
2017-07-16T19:19:45.179Z,1.70
2017-07-16T19:22:12.619Z,2.03
2017-07-16T19:24:40.063Z,1.90
2017-07-16T19:27:07.519Z,2.20
2017-07-16T19:29:35.075Z,2.10
2017-07-16T19:32:02.535Z,2.27
2017-07-16T19:34:29.982Z,2.13
2017-07-16T19:36:57.444Z,2.00
2017-07-16T19:39:24.880Z,2.50
2017-07-16T19:41:52.319Z,3.20
2017-07-16T19:44:20.532Z,2.87
2017-07-16T19:46:47.988Z,3.33
2017-07-16T19:49:15.443Z,3.00
2017-07-16T19:51:42.891Z,2.83
2017-07-16T19:54:10.342Z,3.20
2017-07-16T19:56:37.775Z,3.20
2017-07-16T19:59:05.986Z,3.30
2017-07-16T20:01:33.429Z,3.03
2017-07-16T20:04:00.875Z,3.50
2017-07-16T20:06:28.315Z,2.83
2017-07-16T20:08:56.539Z,3.10
2017-07-16T20:11:23.983Z,3.10
2017-07-16T20:13:51.496Z,2.80
2017-07-16T20:16:19.712Z,3.00
2017-07-16T20:18:47.155Z,2.80
2017-07-16T20:21:14.605Z,3.37
2017-07-16T20:23:42.043Z,3.13
2017-07-16T20:26:09.490Z,3.20
2017-07-16T20:28:36.935Z,3.10
2017-07-16T20:31:04.388Z,2.67
2017-07-16T20:33:31.832Z,2.83
2017-07-16T20:35:59.482Z,2.80
2017-07-16T20:38:26.923Z,2.60
2017-07-16T20:40:54.363Z,2.67
2017-07-16T20:43:22.296Z,2.63
2017-07-16T20:45:50.519Z,2.30
2017-07-16T20:48:17.979Z,2.53
2017-07-16T20:50:45.418Z,2.57
2017-07-16T20:53:12.867Z,2.87
2017-07-16T20:55:40.304Z,2.50
2017-07-16T20:58:08.544Z,2.70
2017-07-16T21:00:35.959Z,2.50
2017-07-16T21:03:03.399Z,2.70
2017-07-16T21:05:30.846Z,2.07
2017-07-16T21:07:59.059Z,2.50
2017-07-16T21:10:26.516Z,2.47
2017-07-16T21:12:53.965Z,2.47
2017-07-16T21:15:21.416Z,2.70
2017-07-16T21:17:48.850Z,2.20
2017-07-16T21:20:17.063Z,2.40
2017-07-16T21:22:44.511Z,2.70
2017-07-16T21:25:11.972Z,2.47
2017-07-16T21:27:39.420Z,2.40
2017-07-16T21:30:06.859Z,2.63
2017-07-16T21:32:34.304Z,2.10
2017-07-16T21:35:02.516Z,2.50
2017-07-16T21:37:29.963Z,2.00
2017-07-16T21:39:57.404Z,2.33
2017-07-16T21:42:24.851Z,2.20
2017-07-16T21:44:52.335Z,2.50
2017-07-16T21:47:19.795Z,2.60
2017-07-16T21:49:47.244Z,2.40
2017-07-16T21:52:14.687Z,2.77
2017-07-16T21:54:42.128Z,2.60
2017-07-16T21:57:10.339Z,2.60
2017-07-16T21:59:37.787Z,2.80
2017-07-16T22:02:05.241Z,2.50
2017-07-16T22:04:32.700Z,2.37
2017-07-16T22:07:00.148Z,2.47
2017-07-16T22:09:27.598Z,2.40
2017-07-16T22:11:55.035Z,2.30
2017-07-16T22:14:23.252Z,2.33
2017-07-16T22:16:50.691Z,2.47
2017-07-16T22:19:18.148Z,2.60
2017-07-16T22:21:45.595Z,3.10
2017-07-16T22:24:13.038Z,2.30
2017-07-16T22:26:41.240Z,2.37
2017-07-16T22:29:08.683Z,2.57
2017-07-16T22:31:36.123Z,2.53
2017-07-16T22:34:04.331Z,2.43
2017-07-16T22:36:31.788Z,2.80
2017-07-16T22:38:59.223Z,2.80
2017-07-16T22:41:26.663Z,3.00
2017-07-16T22:43:54.872Z,2.67
2017-07-16T22:46:22.327Z,2.47
2017-07-16T22:48:49.755Z,2.93
2017-07-16T22:51:17.194Z,2.73
2017-07-16T22:53:45.403Z,3.10
2017-07-16T22:56:12.843Z,2.60
2017-07-16T22:58:40.296Z,2.63
2017-07-16T23:01:08.503Z,3.13
2017-07-16T23:03:35.958Z,2.60
2017-07-16T23:06:03.404Z,2.80
2017-07-16T23:08:30.856Z,2.40
2017-07-16T23:10:58.296Z,2.60
2017-07-16T23:13:25.745Z,2.70
2017-07-16T23:15:53.956Z,2.90
2017-07-16T23:18:21.411Z,2.90
2017-07-16T23:20:48.854Z,2.70
2017-07-16T23:23:16.298Z,2.70
2017-07-16T23:25:43.746Z,2.73
2017-07-16T23:28:11.955Z,2.93
2017-07-16T23:30:39.415Z,2.97
2017-07-16T23:33:06.872Z,2.57
2017-07-16T23:35:34.322Z,2.43
2017-07-16T23:38:01.767Z,2.27
2017-07-16T23:40:29.212Z,3.10
2017-07-16T23:42:56.647Z,2.53
2017-07-16T23:45:24.866Z,2.97
2017-07-16T23:47:52.307Z,3.20
2017-07-16T23:50:19.762Z,2.70
2017-07-16T23:52:47.196Z,3.20
2017-07-16T23:55:15.418Z,2.60
2017-07-16T23:57:42.863Z,2.53
